Bei Facebook empfehlenBei Twitter postenGoogle plusPinterest

Das Wetter im Erzgebirge am 20.10.2015

Wetter und Klima am 20.10.2015 Holzhau im Erzgebirge (630m ü.NN)
Letzte gemessene Temperatur und Uhrzeit der Messung23:45:00 Uhr5.90 °C
Temperatur (Maximum / Höchstwert) und Uhrzeit der Messung23:45:00 Uhr5.90 °C
Temperatur (Minimum / Tiefstwert) und Uhrzeit der Messung03:45:00-1.80 °C
Errechneter Absolutwert der Temperaturschwankungen zwischen Tmin und Tmax des Tages7.70 K
Errechnete Tagesmitteltemperatur3.17083 °C
Gesamt - Niederschlag des Tages (in flüssiger Form)5.69 Liter / m²
Luftdruck (Maximum / Höchstwert) und Zeitpunkt der Messung00:00:00 Uhr1016.70 hPa
Luftdruck (Minimum / Tiefstwert) und Zeitpunkt der Messung15:45:00 Uhr1014.50 hPa
Errechneter Absolutwert der Luftdruckschwankungen des Tages2.20 hPa
Höchste gemessene Windgeschwindigkeit und Uhrzeit der Messung11:45:00 Uhr3.60 km/h
Errechnete Windhäufigkeit in Relation zu den Messwerten des Tages4.16667 %
Niedrigste Windkühle (Windchill) und Zeitpunkt der Messung03:45:00 Uhr-1.80 °C
Taupunkt (Maximum / Höchstwert) und Uhrzeit der Messung23:45:00 Uhr5.50 °C
Taupunkt (Minimum / Tiefstwert) und Uhrzeit der Messung03:45:00-2.90 °C
Anzahl der automatisch eingelesenen Messwerte 96

Detaillierte Wetter- und Klima- Messwerte für den 20.10.2015 in Holzhau im Erzgebirge (630m ü.NN)
ZeitTemperaturLuftdruckRel. LuftfeuchteWindWindrichtungWindchillTaupunktNiederschlag l/m²
23:45:005.90 °C1015.80 hPa97.00 %5.50 °C5.69
23:30:005.90 °C1016.00 hPa97.00 %5.50 °C5.18
23:15:005.90 °C1016.00 hPa97.00 %5.50 °C5.18
23:00:005.90 °C1015.80 hPa97.00 %5.50 °C5.18
22:45:005.90 °C1015.90 hPa97.00 %5.50 °C5.18
22:30:005.90 °C1015.90 hPa97.00 %5.50 °C4.66
22:15:005.90 °C1016.00 hPa97.00 %5.50 °C4.66
22:00:005.80 °C1016.00 hPa97.00 %5.40 °C4.66
21:45:005.80 °C1015.90 hPa97.00 %5.40 °C4.66
21:30:005.70 °C1016.00 hPa97.00 %5.30 °C4.66
21:15:005.60 °C1015.90 hPa96.00 %5.00 °C4.14
21:00:005.60 °C1015.90 hPa96.00 %5.00 °C4.14
20:45:005.60 °C1015.80 hPa96.00 %5.00 °C4.14
20:30:005.60 °C1015.90 hPa96.00 %5.00 °C3.62
20:15:005.50 °C1015.70 hPa96.00 %4.90 °C3.62
20:00:005.50 °C1015.70 hPa96.00 %4.90 °C3.10
19:45:005.40 °C1015.70 hPa96.00 %4.80 °C3.10
19:30:005.40 °C1015.80 hPa96.00 %4.80 °C3.10
19:15:005.40 °C1015.80 hPa96.00 %4.80 °C2.59
19:00:005.40 °C1015.70 hPa96.00 %4.80 °C2.07
18:45:005.50 °C1015.60 hPa96.00 %4.90 °C2.07
18:30:005.50 °C1015.40 hPa96.00 %4.90 °C2.07
18:15:005.50 °C1015.20 hPa96.00 %4.90 °C1.55
18:00:005.50 °C1015.10 hPa96.00 %4.90 °C1.55
17:45:005.40 °C1015.10 hPa96.00 %4.80 °C1.55
17:30:005.40 °C1015.10 hPa96.00 %4.80 °C1.55
17:15:005.30 °C1015.00 hPa96.00 %4.70 °C1.55
17:00:005.30 °C1014.90 hPa96.00 %4.70 °C1.03
16:45:005.30 °C1014.80 hPa96.00 %4.70 °C1.03
16:30:005.20 °C1014.80 hPa96.00 %4.60 °C0.51
16:15:005.20 °C1014.80 hPa95.00 %4.50 °C0.51
16:00:005.20 °C1014.80 hPa95.00 %4.50 °C0.51
15:45:005.20 °C1014.50 hPa95.00 %4.50 °C0.51
15:30:005.20 °C1014.80 hPa95.00 %4.50 °C0.51
15:15:005.10 °C1014.80 hPa95.00 %4.40 °C 
15:00:005.10 °C1014.70 hPa95.00 %4.40 °C 
14:45:005.10 °C1014.70 hPa95.00 %1.80 km/hWSW5.10 °C4.40 °C 
14:30:005.10 °C1015.00 hPa95.00 %4.40 °C 
14:15:005.10 °C1014.90 hPa95.00 %4.40 °C 
14:00:005.10 °C1015.10 hPa95.00 %4.40 °C 
13:45:005.10 °C1015.10 hPa95.00 %4.40 °C 
13:30:005.30 °C1015.20 hPa95.00 %4.60 °C 
13:15:005.50 °C1015.10 hPa95.00 %4.80 °C 
13:00:005.60 °C1015.20 hPa95.00 %4.90 °C 
12:45:005.50 °C1015.00 hPa96.00 %4.90 °C 
12:30:005.30 °C1015.00 hPa96.00 %4.70 °C 
12:15:005.10 °C1014.70 hPa96.00 %2.16 km/hWNW5.10 °C4.50 °C 
12:00:004.80 °C1014.80 hPa96.00 %4.20 °C 
11:45:004.80 °C1014.90 hPa96.00 %3.60 km/hW4.80 °C4.20 °C 
11:30:004.90 °C1015.00 hPa96.00 %1.80 km/hWNW4.90 °C4.30 °C 
11:15:004.60 °C1015.00 hPa96.00 %4.00 °C 
11:00:004.40 °C1015.00 hPa96.00 %3.80 °C 
10:45:004.20 °C1015.10 hPa95.00 %3.50 °C 
10:30:004.10 °C1015.00 hPa95.00 %3.40 °C 
10:15:003.90 °C1015.20 hPa95.00 %3.20 °C 
10:00:003.80 °C1015.30 hPa95.00 %3.10 °C 
09:45:003.40 °C1015.30 hPa95.00 %2.70 °C 
09:30:003.00 °C1015.50 hPa95.00 %2.30 °C 
09:15:002.50 °C1015.30 hPa95.00 %1.80 °C 
09:00:002.10 °C1015.10 hPa95.00 %1.40 °C 
08:45:001.70 °C1015.00 hPa95.00 %1.00 °C 
08:30:001.30 °C1014.90 hPa95.00 %0.60 °C 
08:15:001.30 °C1014.80 hPa95.00 %0.60 °C 
08:00:001.10 °C1014.80 hPa95.00 %0.40 °C 
07:45:001.00 °C1014.70 hPa95.00 %0.30 °C 
07:30:000.90 °C1014.60 hPa95.00 %0.20 °C 
07:15:000.90 °C1014.80 hPa95.00 %0.20 °C 
07:00:000.80 °C1014.80 hPa95.00 %0.10 °C 
06:45:000.80 °C1014.70 hPa95.00 %0.10 °C 
06:30:000.70 °C1014.90 hPa94.00 %-0.20 °C 
06:15:000.50 °C1015.00 hPa94.00 %-0.40 °C 
06:00:000.40 °C1015.20 hPa94.00 %-0.50 °C 
05:45:000.30 °C1015.10 hPa94.00 %-0.50 °C 
05:30:000.10 °C1015.30 hPa94.00 %-0.70 °C 
05:15:000.10 °C1015.30 hPa94.00 %-0.70 °C 
05:00:00-0.10 °C1015.40 hPa94.00 %-1.00 °C 
04:45:00-0.20 °C1015.40 hPa94.00 %-1.10 °C 
04:30:00-0.50 °C1015.60 hPa94.00 %-1.40 °C 
04:15:00-0.70 °C1015.70 hPa94.00 %-1.60 °C 
04:00:00-1.20 °C1015.80 hPa94.00 %-2.10 °C 
03:45:00-1.80 °C1015.70 hPa93.00 %-2.90 °C 
03:30:00-1.80 °C1015.90 hPa93.00 %-2.90 °C 
03:15:00-1.70 °C1015.80 hPa93.00 %-2.80 °C 
03:00:00-1.80 °C1015.80 hPa93.00 %-2.90 °C 
02:45:00-1.80 °C1015.80 hPa93.00 %-2.90 °C 
02:30:00-1.50 °C1015.70 hPa93.00 %-2.60 °C 
02:15:00-1.10 °C1015.90 hPa93.00 %-2.20 °C 
02:00:00-0.60 °C1015.80 hPa93.00 %-1.70 °C 
01:45:00-0.20 °C1016.00 hPa93.00 %-1.30 °C 
01:30:00-0.10 °C1016.10 hPa93.00 %-1.20 °C 
01:15:000.10 °C1016.10 hPa93.00 %-0.90 °C 
01:00:000.10 °C1016.20 hPa93.00 %-0.90 °C 
00:45:000.00 °C1016.40 hPa93.00 %-1.10 °C 
00:30:000.10 °C1016.60 hPa93.00 %-0.90 °C 
00:15:000.10 °C1016.60 hPa92.00 %-1.00 °C 
00:00:000.40 °C1016.70 hPa93.00 %-0.60 °C 

Permanenter Link zu dieser Seite: Wetter im Erzgebirge am 20.10.2015
Performance-Info: Die Erstellung der Seite / Statistik(en) / Tabelle(n) erforderte 5 Datenbankserver-Abfrage(n) und dauerte 122 Millisekunden. (Dieser Messwert ist von der Gesamt-Auslastung des Servers abhängig.)
Erzgebirge - Wetter | Erzgebirge - Wetter (Mobilgeräte) | Komplette Klimadatenbank